createdAt,value
2018-07-13T00:01:31.141Z,8.17
2018-07-13T00:03:59.615Z,8.50
2018-07-13T00:06:28.535Z,9.03
2018-07-13T00:08:57.020Z,8.67
2018-07-13T00:11:25.462Z,8.50
2018-07-13T00:14:17.794Z,9.20
2018-07-13T00:16:47.340Z,8.30
2018-07-13T00:19:16.414Z,8.20
2018-07-13T00:21:44.879Z,8.67
2018-07-13T00:24:13.411Z,8.97
2018-07-13T00:26:41.973Z,9.10
2018-07-13T00:29:10.886Z,8.30
2018-07-13T00:31:40.386Z,8.70
2018-07-13T00:34:08.835Z,8.10
2018-07-13T00:36:37.408Z,8.87
2018-07-13T00:39:08.363Z,8.03
2018-07-13T00:41:36.805Z,10.60
2018-07-13T00:44:05.869Z,9.53
2018-07-13T00:46:34.406Z,9.30
2018-07-13T00:49:02.822Z,9.20
2018-07-13T00:51:31.356Z,8.13
2018-07-13T00:53:59.793Z,7.90
2018-07-13T00:56:28.191Z,9.20
2018-07-13T00:58:56.659Z,9.03
2018-07-13T01:01:25.123Z,8.83
2018-07-13T01:03:53.589Z,8.20
2018-07-13T01:06:22.161Z,8.70
2018-07-13T01:08:50.664Z,10.70
2018-07-13T01:11:19.105Z,8.53
2018-07-13T01:13:47.540Z,9.97
2018-07-13T01:16:16.016Z,10.70
2018-07-13T01:18:44.435Z,8.40
2018-07-13T01:21:15.447Z,9.60
2018-07-13T01:23:43.893Z,9.03
2018-07-13T01:26:12.401Z,9.70
2018-07-13T01:28:40.844Z,9.63
2018-07-13T01:31:09.269Z,8.97
2018-07-13T01:33:37.708Z,9.43
2018-07-13T01:36:06.200Z,10.40
2018-07-13T01:38:34.684Z,13.27
2018-07-13T01:41:03.209Z,11.33
2018-07-13T01:43:31.691Z,9.10
2018-07-13T01:46:00.174Z,9.60
2018-07-13T01:48:28.606Z,10.77
2018-07-13T01:50:57.033Z,9.93
2018-07-13T01:53:25.465Z,10.77
2018-07-13T01:55:53.579Z,9.27
2018-07-13T01:58:23.043Z,9.47
2018-07-13T02:00:51.552Z,9.23
2018-07-13T02:03:20.100Z,9.87
2018-07-13T02:05:48.300Z,9.27
2018-07-13T02:08:16.714Z,17.20
2018-07-13T02:10:45.135Z,18.07
2018-07-13T02:13:13.549Z,9.70
2018-07-13T02:15:41.975Z,8.93
2018-07-13T02:18:10.421Z,9.77
2018-07-13T02:20:38.852Z,14.07
2018-07-13T02:23:07.314Z,11.67
2018-07-13T02:25:35.746Z,10.70
2018-07-13T02:28:04.300Z,13.23
2018-07-13T02:30:32.770Z,14.17
2018-07-13T02:33:01.184Z,15.00
2018-07-13T02:35:29.632Z,14.23
2018-07-13T02:37:58.072Z,15.13
2018-07-13T02:40:26.516Z,15.33
2018-07-13T02:42:55.104Z,14.87
2018-07-13T02:45:23.536Z,14.30
2018-07-13T02:47:51.969Z,13.63
2018-07-13T02:50:20.461Z,16.83
2018-07-13T02:52:48.883Z,15.90
2018-07-13T02:55:17.346Z,15.20
2018-07-13T02:57:45.964Z,14.70
2018-07-13T03:00:14.501Z,14.07
2018-07-13T03:02:42.973Z,15.10
2018-07-13T03:05:11.530Z,13.83
2018-07-13T03:07:40.170Z,15.57
2018-07-13T03:10:08.597Z,15.90
2018-07-13T03:12:37.071Z,16.07
2018-07-13T03:15:05.563Z,14.87
2018-07-13T03:17:33.988Z,15.20
2018-07-13T03:20:02.438Z,17.80
2018-07-13T03:22:30.944Z,14.50
2018-07-13T03:24:59.408Z,14.80
2018-07-13T03:27:29.731Z,12.63
2018-07-13T03:29:58.165Z,18.63
2018-07-13T03:32:26.639Z,19.37
2018-07-13T03:34:55.047Z,14.13
2018-07-13T03:37:23.524Z,13.60
2018-07-13T03:39:52.049Z,13.60
2018-07-13T03:42:20.489Z,14.70
2018-07-13T03:44:48.918Z,12.67
2018-07-13T03:47:17.377Z,12.50
2018-07-13T03:49:45.797Z,12.10
2018-07-13T03:52:14.224Z,12.17
2018-07-13T03:54:42.652Z,11.30
2018-07-13T03:57:11.108Z,13.57
2018-07-13T03:59:39.622Z,11.80
2018-07-13T04:02:07.747Z,12.63
2018-07-13T04:04:36.361Z,11.73
2018-07-13T04:07:04.857Z,11.87
2018-07-13T04:09:33.268Z,11.13
2018-07-13T04:12:01.857Z,13.80
2018-07-13T04:14:30.364Z,13.50
2018-07-13T04:16:58.820Z,12.70
2018-07-13T04:19:27.291Z,11.30
2018-07-13T04:21:55.867Z,11.90
2018-07-13T04:24:24.404Z,10.50
2018-07-13T04:26:52.869Z,9.43
2018-07-13T04:29:21.324Z,10.00
2018-07-13T04:31:49.741Z,11.23
2018-07-13T04:34:18.200Z,9.20
2018-07-13T04:36:46.737Z,11.30
2018-07-13T04:39:15.655Z,10.13
2018-07-13T04:41:44.142Z,11.10
2018-07-13T04:44:12.589Z,11.60
2018-07-13T04:46:41.062Z,9.60
2018-07-13T04:49:10.038Z,9.83
2018-07-13T04:51:38.569Z,9.23
2018-07-13T04:54:07.065Z,9.67
2018-07-13T04:56:35.554Z,10.10
2018-07-13T04:59:04.011Z,9.37
2018-07-13T05:01:32.503Z,9.87
2018-07-13T05:04:00.976Z,8.70
2018-07-13T05:06:29.558Z,9.30
2018-07-13T05:08:58.171Z,8.80
2018-07-13T05:11:26.889Z,7.87
2018-07-13T05:13:55.337Z,7.87
2018-07-13T05:16:23.828Z,8.03
2018-07-13T05:18:52.264Z,8.10
2018-07-13T05:21:20.785Z,8.33
2018-07-13T05:23:49.233Z,11.10
2018-07-13T05:26:17.817Z,7.77
2018-07-13T05:28:46.317Z,7.10
2018-07-13T05:31:15.128Z,8.33
2018-07-13T05:33:43.810Z,6.67
2018-07-13T05:36:12.349Z,7.90
2018-07-13T05:38:40.860Z,6.97
2018-07-13T05:41:09.343Z,7.30
2018-07-13T05:43:37.816Z,7.03
2018-07-13T05:46:06.334Z,8.17
2018-07-13T05:48:35.700Z,7.50
2018-07-13T05:51:04.212Z,7.97
2018-07-13T05:53:33.461Z,8.10
2018-07-13T05:56:01.989Z,8.73
2018-07-13T05:58:30.468Z,8.77
2018-07-13T06:00:58.960Z,8.43
2018-07-13T06:03:27.608Z,8.20
2018-07-13T06:05:56.108Z,8.80
2018-07-13T06:08:24.561Z,7.50
2018-07-13T06:10:53.073Z,9.27
2018-07-13T06:13:21.670Z,9.00
2018-07-13T06:15:50.093Z,10.03
2018-07-13T06:18:18.689Z,9.33
2018-07-13T06:20:46.873Z,8.60
2018-07-13T06:23:15.289Z,10.33
2018-07-13T06:25:43.760Z,10.20
2018-07-13T06:28:12.276Z,10.43
2018-07-13T06:30:40.746Z,9.80
2018-07-13T06:33:09.284Z,8.70
2018-07-13T06:35:37.864Z,9.73
2018-07-13T06:38:06.541Z,8.80
2018-07-13T06:40:34.984Z,9.28
2018-07-13T06:43:03.778Z,8.45
2018-07-13T06:45:35.864Z,10.58
2018-07-13T06:48:04.605Z,9.35
2018-07-13T06:50:33.174Z,9.20
2018-07-13T06:53:01.538Z,9.55
2018-07-13T06:55:30.071Z,10.20
2018-07-13T06:58:09.644Z,10.45
2018-07-13T07:01:08.429Z,9.20
2018-07-13T07:04:41.187Z,9.93
2018-07-13T07:07:12.434Z,11.10
2018-07-13T07:09:45.135Z,9.75
2018-07-13T07:12:55.082Z,10.18
2018-07-13T07:15:24.492Z,10.38
2018-07-13T07:17:54.001Z,9.75
2018-07-13T07:20:22.423Z,10.20
2018-07-13T07:22:51.107Z,10.53
2018-07-13T07:25:19.842Z,10.55
2018-07-13T07:27:48.356Z,10.18
2018-07-13T07:30:16.847Z,10.30
2018-07-13T07:32:46.002Z,10.50
2018-07-13T07:35:14.217Z,11.33
2018-07-13T07:37:42.869Z,10.70
2018-07-13T07:40:11.331Z,11.05
2018-07-13T07:42:40.066Z,10.75
2018-07-13T07:45:08.708Z,11.93
2018-07-13T07:47:37.184Z,11.33
2018-07-13T07:50:05.767Z,10.13
2018-07-13T07:52:34.202Z,13.08
2018-07-13T07:55:02.864Z,12.53
2018-07-13T07:57:31.435Z,11.70
2018-07-13T07:59:59.984Z,12.78
2018-07-13T08:02:28.481Z,12.75
2018-07-13T08:04:56.905Z,12.90
2018-07-13T08:07:25.400Z,13.25
2018-07-13T08:09:54.261Z,12.50
2018-07-13T08:12:22.735Z,13.25
2018-07-13T08:14:51.216Z,13.08
2018-07-13T08:17:19.811Z,15.03
2018-07-13T08:19:48.485Z,14.50
2018-07-13T08:22:22.450Z,16.95
2018-07-13T08:24:53.571Z,15.50
2018-07-13T08:27:24.557Z,14.13
2018-07-13T08:29:54.547Z,15.25
2018-07-13T08:32:23.309Z,14.50
2018-07-13T08:34:51.728Z,16.25
2018-07-13T08:37:20.214Z,11.00
2018-07-13T08:39:48.715Z,13.43
2018-07-13T08:42:17.211Z,13.95
2018-07-13T08:44:45.713Z,11.73
2018-07-13T08:47:14.297Z,13.88
2018-07-13T08:49:42.953Z,12.90
2018-07-13T08:52:11.484Z,12.95
2018-07-13T08:54:40.150Z,11.10
2018-07-13T08:57:08.816Z,11.18
2018-07-13T08:59:37.476Z,11.43
2018-07-13T09:02:06.117Z,9.45
2018-07-13T09:04:34.672Z,8.93
2018-07-13T09:07:03.135Z,9.83
2018-07-13T09:09:31.638Z,8.38
2018-07-13T09:12:00.171Z,9.45
2018-07-13T09:14:28.659Z,7.83
2018-07-13T09:16:57.118Z,6.85
2018-07-13T09:19:26.028Z,6.90
2018-07-13T09:21:54.501Z,6.85
2018-07-13T09:24:22.996Z,7.20
2018-07-13T09:26:51.920Z,8.23
2018-07-13T09:29:20.409Z,10.75
2018-07-13T09:31:49.009Z,6.97
2018-07-13T09:34:17.512Z,7.58
2018-07-13T09:36:46.079Z,7.03
2018-07-13T09:39:14.524Z,6.62
2018-07-13T09:41:43.015Z,7.00
2018-07-13T09:44:11.501Z,6.58
2018-07-13T09:46:40.282Z,6.40
2018-07-13T09:49:08.672Z,6.42
2018-07-13T09:51:36.845Z,8.63
2018-07-13T09:54:05.434Z,6.97
2018-07-13T09:56:34.012Z,7.03
2018-07-13T09:59:02.513Z,7.12
2018-07-13T10:01:31.157Z,7.22
2018-07-13T10:03:59.857Z,6.53
2018-07-13T10:06:28.487Z,6.78
2018-07-13T10:08:57.037Z,6.28
2018-07-13T10:11:25.486Z,7.50
2018-07-13T10:13:53.958Z,7.50
2018-07-13T10:16:22.842Z,6.97
2018-07-13T10:18:51.341Z,5.72
2018-07-13T10:21:19.817Z,7.35
2018-07-13T10:23:48.349Z,6.55
2018-07-13T10:26:22.517Z,6.62
2018-07-13T10:28:51.332Z,8.78
2018-07-13T10:31:20.013Z,7.10
2018-07-13T10:33:48.825Z,6.05
2018-07-13T10:36:19.835Z,7.30
2018-07-13T10:38:48.288Z,6.42
2018-07-13T10:41:16.788Z,5.10
2018-07-13T10:43:45.349Z,4.72
2018-07-13T10:46:13.958Z,4.60
2018-07-13T10:48:42.602Z,4.87
2018-07-13T10:51:12.191Z,4.47
2018-07-13T10:53:40.713Z,4.58
2018-07-13T10:56:09.148Z,3.75
2018-07-13T10:58:37.582Z,4.85
2018-07-13T11:01:06.024Z,4.95
2018-07-13T11:03:34.854Z,4.97
2018-07-13T11:06:03.093Z,3.60
2018-07-13T11:08:31.695Z,3.98
2018-07-13T11:11:00.121Z,4.50
2018-07-13T11:13:28.582Z,4.70
2018-07-13T11:15:57.014Z,4.10
2018-07-13T11:18:25.646Z,3.92
2018-07-13T11:20:54.101Z,3.98
2018-07-13T11:23:22.557Z,3.33
2018-07-13T11:25:51.049Z,4.30
2018-07-13T11:28:19.689Z,3.35
2018-07-13T11:30:48.175Z,4.15
2018-07-13T11:33:16.660Z,4.20
2018-07-13T11:35:45.101Z,3.98
2018-07-13T11:38:13.548Z,5.33
2018-07-13T11:40:42.239Z,4.83
2018-07-13T11:43:10.887Z,3.22
2018-07-13T11:45:39.526Z,4.00
2018-07-13T11:48:08.042Z,3.62
2018-07-13T11:50:36.483Z,4.05
2018-07-13T11:53:05.213Z,3.95
2018-07-13T11:55:33.744Z,4.03
2018-07-13T11:58:02.316Z,4.22
2018-07-13T12:00:30.848Z,3.90
2018-07-13T12:02:59.321Z,3.67
2018-07-13T12:05:27.802Z,3.57
2018-07-13T12:07:56.612Z,4.17
2018-07-13T12:10:25.149Z,3.90
2018-07-13T12:12:53.925Z,4.17
2018-07-13T12:15:22.383Z,4.77
2018-07-13T12:17:50.911Z,3.90
2018-07-13T12:20:19.419Z,4.20
2018-07-13T12:22:47.888Z,3.80
2018-07-13T12:25:16.504Z,4.20
2018-07-13T12:27:45.024Z,4.40
2018-07-13T12:30:14.385Z,4.60
2018-07-13T12:32:42.870Z,3.80
2018-07-13T12:35:11.342Z,11.40
2018-07-13T12:37:40.730Z,5.00
2018-07-13T12:40:09.242Z,4.10
2018-07-13T12:42:37.769Z,4.87
2018-07-13T12:45:06.209Z,4.43
2018-07-13T12:47:34.684Z,3.27
2018-07-13T12:50:03.161Z,3.17
2018-07-13T12:52:31.678Z,3.40
2018-07-13T12:55:00.232Z,3.90
2018-07-13T12:57:28.694Z,3.37
2018-07-13T12:59:57.528Z,3.30
2018-07-13T13:02:26.003Z,3.60
2018-07-13T13:04:54.633Z,3.57
2018-07-13T13:07:23.938Z,3.57
2018-07-13T13:09:52.423Z,4.50
2018-07-13T13:12:20.997Z,3.83
2018-07-13T13:14:49.505Z,8.83
2018-07-13T13:17:18.011Z,5.00
2018-07-13T13:19:46.976Z,6.67
2018-07-13T13:22:15.462Z,3.30
2018-07-13T13:24:43.912Z,2.53
2018-07-13T13:27:12.445Z,2.63
2018-07-13T13:29:40.978Z,2.83
2018-07-13T13:32:09.538Z,2.83
2018-07-13T13:34:38.027Z,3.60
2018-07-13T13:37:06.573Z,2.67
2018-07-13T13:39:35.008Z,3.23
2018-07-13T13:42:03.488Z,3.33
2018-07-13T13:44:31.992Z,3.00
2018-07-13T13:47:00.550Z,2.47
2018-07-13T13:49:29.569Z,3.30
2018-07-13T13:51:58.053Z,2.90
2018-07-13T13:54:26.604Z,2.67
2018-07-13T13:56:55.060Z,3.30
2018-07-13T13:59:23.645Z,3.00
2018-07-13T14:01:52.129Z,2.43
2018-07-13T14:04:20.575Z,2.77
2018-07-13T14:06:49.078Z,2.87
2018-07-13T14:09:17.641Z,2.97
2018-07-13T14:11:46.012Z,3.17
2018-07-13T14:14:14.477Z,3.60
2018-07-13T14:16:43.106Z,2.70
2018-07-13T14:19:11.611Z,2.80
2018-07-13T14:21:40.169Z,2.60
2018-07-13T14:24:08.707Z,2.67
2018-07-13T14:26:37.148Z,2.80
2018-07-13T14:29:05.782Z,2.90
2018-07-13T14:31:34.381Z,2.50
2018-07-13T14:34:03.023Z,3.63
2018-07-13T14:36:31.563Z,3.33
2018-07-13T14:39:00.164Z,3.83
2018-07-13T14:41:28.868Z,3.40
2018-07-13T14:43:57.454Z,3.30
2018-07-13T14:46:26.011Z,2.70
2018-07-13T14:48:54.510Z,3.80
2018-07-13T14:51:23.055Z,2.70
2018-07-13T14:53:51.675Z,2.80
2018-07-13T14:56:20.364Z,2.33
2018-07-13T14:58:49.215Z,2.27
2018-07-13T15:01:17.839Z,3.30
2018-07-13T15:03:46.306Z,2.50
2018-07-13T15:06:15.035Z,2.90
2018-07-13T15:08:43.388Z,2.80
2018-07-13T15:11:11.950Z,3.50
2018-07-13T15:13:40.691Z,4.00
2018-07-13T15:16:12.002Z,3.60
2018-07-13T15:18:40.463Z,2.73
2018-07-13T15:21:08.955Z,3.47
2018-07-13T15:23:37.417Z,3.13
2018-07-13T15:26:06.194Z,2.90
2018-07-13T15:28:34.685Z,3.47
2018-07-13T15:31:03.183Z,3.07
2018-07-13T15:33:31.996Z,3.10
2018-07-13T15:36:01.468Z,3.67
2018-07-13T15:38:29.942Z,3.40
2018-07-13T15:40:58.475Z,2.80
2018-07-13T15:43:26.990Z,3.90
2018-07-13T15:45:55.442Z,3.20
2018-07-13T15:48:23.894Z,3.50
2018-07-13T15:50:52.456Z,3.60
2018-07-13T15:53:21.126Z,2.63
2018-07-13T15:55:57.625Z,3.13
2018-07-13T15:58:27.071Z,3.13
2018-07-13T16:00:55.717Z,3.27
2018-07-13T16:03:24.188Z,3.40
2018-07-13T16:05:52.714Z,3.93
2018-07-13T16:08:21.380Z,3.60
2018-07-13T16:10:50.095Z,3.07
2018-07-13T16:13:18.842Z,3.10
2018-07-13T16:15:47.405Z,3.20
2018-07-13T16:18:16.887Z,5.20
2018-07-13T16:20:45.491Z,4.17
2018-07-13T16:23:13.957Z,4.40
2018-07-13T16:25:42.437Z,3.30
2018-07-13T16:28:10.904Z,3.60
2018-07-13T16:30:39.517Z,3.83
2018-07-13T16:33:07.924Z,3.30
2018-07-13T16:35:36.426Z,3.73
2018-07-13T16:38:04.953Z,4.10
2018-07-13T16:40:33.388Z,11.80
2018-07-13T16:43:01.969Z,8.37
2018-07-13T16:45:30.513Z,3.67
2018-07-13T16:47:58.987Z,4.23
2018-07-13T16:50:27.573Z,3.70
2018-07-13T16:52:55.984Z,5.13
2018-07-13T16:55:24.534Z,4.20
2018-07-13T16:57:52.958Z,3.63
2018-07-13T17:00:21.428Z,3.67
2018-07-13T17:02:49.895Z,4.17
2018-07-13T17:05:18.467Z,3.57
2018-07-13T17:07:46.976Z,2.63
2018-07-13T17:10:15.432Z,2.70
2018-07-13T17:12:43.955Z,2.40
2018-07-13T17:15:12.438Z,7.10
2018-07-13T17:17:40.886Z,4.70
2018-07-13T17:20:09.375Z,3.93
2018-07-13T17:22:37.806Z,4.30
2018-07-13T17:25:06.875Z,3.40
2018-07-13T17:27:35.379Z,13.13
2018-07-13T17:30:04.673Z,4.67
2018-07-13T17:32:33.105Z,3.90
2018-07-13T17:35:01.579Z,4.47
2018-07-13T17:37:29.986Z,3.20
2018-07-13T17:39:58.420Z,3.63
2018-07-13T17:42:26.891Z,2.77
2018-07-13T17:44:55.318Z,3.20
2018-07-13T17:47:23.763Z,3.70
2018-07-13T17:49:52.278Z,3.83
2018-07-13T17:52:20.838Z,3.90
2018-07-13T17:54:49.317Z,3.67
2018-07-13T17:57:17.797Z,3.10
2018-07-13T17:59:46.281Z,4.87
2018-07-13T18:02:14.761Z,3.70
2018-07-13T18:04:43.497Z,3.63
2018-07-13T18:07:11.702Z,4.33
2018-07-13T18:09:40.182Z,3.53
2018-07-13T18:12:08.793Z,3.40
2018-07-13T18:14:37.293Z,3.33
2018-07-13T18:17:05.846Z,4.23
2018-07-13T18:19:34.315Z,3.53
2018-07-13T18:22:02.856Z,3.80
2018-07-13T18:24:31.337Z,3.67
2018-07-13T18:26:59.804Z,3.30
2018-07-13T18:29:28.275Z,3.60
2018-07-13T18:31:56.734Z,3.40
2018-07-13T18:34:25.220Z,3.07
2018-07-13T18:36:53.828Z,3.20
2018-07-13T18:39:22.292Z,3.40
2018-07-13T18:41:50.825Z,3.73
2018-07-13T18:44:19.384Z,3.70
2018-07-13T18:46:47.792Z,3.33
2018-07-13T18:49:16.614Z,3.40
2018-07-13T18:51:45.540Z,4.17
2018-07-13T18:54:15.302Z,3.77
2018-07-13T18:56:43.981Z,3.20
2018-07-13T18:59:13.121Z,4.43
2018-07-13T19:01:42.077Z,3.33
2018-07-13T19:04:10.597Z,4.17
2018-07-13T19:06:39.105Z,3.73
2018-07-13T19:09:08.297Z,4.27
2018-07-13T19:11:36.743Z,4.50
2018-07-13T19:14:05.267Z,3.37
2018-07-13T19:16:33.732Z,3.60
2018-07-13T19:19:02.190Z,3.87
2018-07-13T19:21:30.678Z,3.87
2018-07-13T19:23:59.216Z,3.30
2018-07-13T19:26:27.789Z,4.30
2018-07-13T19:28:56.202Z,3.97
2018-07-13T19:31:24.685Z,4.00
2018-07-13T19:33:53.128Z,3.77
2018-07-13T19:36:21.660Z,3.60
2018-07-13T19:38:50.052Z,3.70
2018-07-13T19:41:18.484Z,4.10
2018-07-13T19:43:46.965Z,3.63
2018-07-13T19:46:15.493Z,4.50
2018-07-13T19:48:44.049Z,4.40
2018-07-13T19:51:12.700Z,4.10
2018-07-13T19:53:41.182Z,4.53
2018-07-13T19:56:09.628Z,4.77
2018-07-13T19:58:37.767Z,5.00
2018-07-13T20:01:06.678Z,4.47
2018-07-13T20:03:35.187Z,5.20
2018-07-13T20:06:03.841Z,4.83
2018-07-13T20:08:32.310Z,5.23
2018-07-13T20:11:07.508Z,5.43
2018-07-13T20:13:35.913Z,6.17
2018-07-13T20:16:04.381Z,5.00
2018-07-13T20:18:32.977Z,5.80
2018-07-13T20:21:01.443Z,5.30
2018-07-13T20:23:29.927Z,6.27
2018-07-13T20:25:58.421Z,4.97
2018-07-13T20:28:26.869Z,5.73
2018-07-13T20:30:55.301Z,5.70
2018-07-13T20:33:23.827Z,5.10
2018-07-13T20:35:52.271Z,6.40
2018-07-13T20:38:20.751Z,4.90
2018-07-13T20:40:49.231Z,7.03
2018-07-13T20:43:17.857Z,5.43
2018-07-13T20:45:46.322Z,5.50
2018-07-13T20:48:14.808Z,6.10
2018-07-13T20:50:43.314Z,5.50
2018-07-13T20:53:18.402Z,4.90
2018-07-13T20:55:46.845Z,5.50
2018-07-13T20:58:15.829Z,6.13
2018-07-13T21:00:44.450Z,5.00
2018-07-13T21:03:12.952Z,5.30
2018-07-13T21:05:41.516Z,4.80
2018-07-13T21:08:16.214Z,4.60
2018-07-13T21:10:44.740Z,4.17
2018-07-13T21:13:13.214Z,6.40
2018-07-13T21:15:41.915Z,5.37
2018-07-13T21:18:10.551Z,6.60
2018-07-13T21:20:39.260Z,6.70
2018-07-13T21:23:07.804Z,6.00
2018-07-13T21:25:36.317Z,4.77
2018-07-13T21:28:05.074Z,5.10
2018-07-13T21:30:33.568Z,5.40
2018-07-13T21:33:02.072Z,5.00
2018-07-13T21:35:30.557Z,5.00
2018-07-13T21:37:59.190Z,5.10
2018-07-13T21:40:27.808Z,4.37
2018-07-13T21:42:56.271Z,5.40
2018-07-13T21:45:24.840Z,5.77
2018-07-13T21:47:53.308Z,5.40
2018-07-13T21:50:21.807Z,5.17
2018-07-13T21:52:50.277Z,5.47
2018-07-13T21:55:18.771Z,5.70
2018-07-13T21:57:47.344Z,5.10
2018-07-13T22:00:15.800Z,4.83
2018-07-13T22:02:44.298Z,6.20
2018-07-13T22:05:12.816Z,6.47
2018-07-13T22:07:41.255Z,7.07
2018-07-13T22:10:09.736Z,6.70
2018-07-13T22:12:38.185Z,6.77
2018-07-13T22:15:07.038Z,5.60
2018-07-13T22:17:35.505Z,6.10
2018-07-13T22:20:04.272Z,6.33
2018-07-13T22:22:32.814Z,6.20
2018-07-13T22:25:01.214Z,5.60
2018-07-13T22:27:29.946Z,5.73
2018-07-13T22:29:58.066Z,5.67
2018-07-13T22:32:26.571Z,5.80
2018-07-13T22:34:55.045Z,6.23
2018-07-13T22:37:23.721Z,5.43
2018-07-13T22:39:52.198Z,6.20
2018-07-13T22:42:20.638Z,5.30
2018-07-13T22:44:49.104Z,5.37
2018-07-13T22:47:17.529Z,5.53
2018-07-13T22:49:46.155Z,6.07
2018-07-13T22:52:14.631Z,4.67
2018-07-13T22:54:43.288Z,5.10
2018-07-13T22:57:11.772Z,5.60
2018-07-13T22:59:40.280Z,6.37
2018-07-13T23:02:08.792Z,5.60
2018-07-13T23:04:37.631Z,6.20
2018-07-13T23:07:06.177Z,5.47
2018-07-13T23:09:34.897Z,6.10
2018-07-13T23:12:03.344Z,5.80
2018-07-13T23:14:31.841Z,6.50
2018-07-13T23:17:00.333Z,5.80
2018-07-13T23:19:28.937Z,5.97
2018-07-13T23:21:57.402Z,5.03
2018-07-13T23:24:25.905Z,5.23
2018-07-13T23:26:54.382Z,5.93
2018-07-13T23:29:22.861Z,6.13
2018-07-13T23:31:52.357Z,23.83
2018-07-13T23:34:20.821Z,24.80
2018-07-13T23:36:49.330Z,11.87
2018-07-13T23:39:17.782Z,6.97
2018-07-13T23:41:46.239Z,6.27
2018-07-13T23:44:14.835Z,6.70
2018-07-13T23:46:43.409Z,6.33
2018-07-13T23:49:11.826Z,6.67
2018-07-13T23:51:40.300Z,6.77
2018-07-13T23:54:08.870Z,7.20
2018-07-13T23:56:37.348Z,7.60
2018-07-13T23:59:05.861Z,6.73
